Time;durP1;ratioP1;P1;durP2;ratioP2;P2;SDS_P1;SDS_P2;PMS_P1;PMS_P2;Temp;Humidity;BMP_temperature;BMP_pressure;BME280_temperature;BME280_humidity;BME280_pressure;Samples;Min_cycle;Max_cycle;Signal;HPM_P1;HPM_P2
2021/03/14 00:01:35;;;;;;;51.13;28.83;;;;;;;;;;5115184;28;20076;-61
2021/03/14 00:04:01;;;;;;;55.90;28.80;;;;;;;;;;5098401;28;20048;-61
2021/03/14 00:06:26;;;;;;;54.10;29.17;;;;;;;;;;5097618;28;20016;-61
2021/03/14 00:08:51;;;;;;;47.00;27.33;;;;;;;;;;5097529;28;20047;-61
2021/03/14 00:11:17;;;;;;;53.65;28.70;;;;;;;;;;5097477;28;20033;-61
2021/03/14 00:13:42;;;;;;;52.13;27.77;;;;;;;;;;5115744;28;20027;-61
2021/03/14 00:16:08;;;;;;;50.58;28.48;;;;;;;;;;5115878;28;20043;-61
2021/03/14 00:18:34;;;;;;;55.10;28.30;;;;;;;;;;5097488;28;20023;-61
2021/03/14 00:21:00;;;;;;;47.08;26.50;;;;;;;;;;5097458;28;20034;-61
2021/03/14 00:23:26;;;;;;;47.00;27.25;;;;;;;;;;5115538;28;20378;-61
2021/03/14 00:25:53;;;;;;;53.05;27.35;;;;;;;;;;5115632;28;20379;-61
2021/03/14 00:28:18;;;;;;;52.78;29.73;;;;;;;;;;5115344;28;20486;-61
2021/03/14 00:30:44;;;;;;;46.33;25.77;;;;;;;;;;5115047;28;20061;-61
2021/03/14 00:33:10;;;;;;;48.67;25.60;;;;;;;;;;5115277;28;20072;-61
2021/03/14 00:35:36;;;;;;;48.53;26.65;;;;;;;;;;5093194;28;20048;-61
2021/03/14 00:38:02;;;;;;;48.42;27.33;;;;;;;;;;5093804;28;20084;-61
2021/03/14 00:40:27;;;;;;;45.85;26.38;;;;;;;;;;5093874;28;20027;-61
2021/03/14 00:42:53;;;;;;;47.35;24.63;;;;;;;;;;5095159;28;20024;-61
2021/03/14 00:45:19;;;;;;;46.90;26.73;;;;;;;;;;5093701;28;20103;-61
2021/03/14 00:47:44;;;;;;;48.20;26.95;;;;;;;;;;5095034;28;20095;-61
2021/03/14 00:50:10;;;;;;;43.63;23.85;;;;;;;;;;5094594;28;20100;-61
2021/03/14 00:52:35;;;;;;;43.38;24.80;;;;;;;;;;5093440;28;20020;-61
2021/03/14 00:55:01;;;;;;;41.70;23.33;;;;;;;;;;5094866;28;20031;-61
2021/03/14 00:57:26;;;;;;;44.55;24.58;;;;;;;;;;5094306;28;20534;-61
2021/03/14 00:59:51;;;;;;;47.03;25.13;;;;;;;;;;5093176;28;20055;-61
2021/03/14 01:02:17;;;;;;;49.72;24.73;;;;;;;;;;5093715;28;20463;-61
2021/03/14 01:04:42;;;;;;;47.25;24.63;;;;;;;;;;5094319;28;20058;-61
2021/03/14 01:07:08;;;;;;;51.58;25.85;;;;;;;;;;5094283;28;20062;-61
2021/03/14 01:09:33;;;;;;;43.88;25.58;;;;;;;;;;5094199;28;20533;-61
2021/03/14 01:11:58;;;;;;;42.38;23.77;;;;;;;;;;5093190;28;20065;-61
2021/03/14 01:14:24;;;;;;;46.75;23.50;;;;;;;;;;5094152;28;20023;-61
2021/03/14 01:16:49;;;;;;;39.67;22.70;;;;;;;;;;5092901;28;20115;-61
2021/03/14 01:19:14;;;;;;;41.88;21.98;;;;;;;;;;5094038;28;20514;-61
2021/03/14 01:21:40;;;;;;;45.47;23.20;;;;;;;;;;5092597;28;20016;-61
2021/03/14 01:24:06;;;;;;;42.42;22.25;;;;;;;;;;5075926;28;20472;-61
2021/03/14 01:26:31;;;;;;;39.35;21.48;;;;;;;;;;5092892;28;20020;-62
2021/03/14 01:28:56;;;;;;;41.95;21.98;;;;;;;;;;5094170;28;20012;-61
2021/03/14 01:31:22;;;;;;;34.03;20.23;;;;;;;;;;5091574;28;20028;-61
2021/03/14 01:33:47;;;;;;;40.38;21.58;;;;;;;;;;5094521;28;20103;-62
2021/03/14 01:36:12;;;;;;;36.22;20.98;;;;;;;;;;5113976;28;20031;-61
2021/03/14 01:38:38;;;;;;;36.85;20.98;;;;;;;;;;5114217;28;20008;-61
2021/03/14 01:41:03;;;;;;;38.47;21.60;;;;;;;;;;5114128;28;20026;-61
2021/03/14 01:43:34;;;;;;;39.72;20.27;;;;;;;;;;5113613;28;20043;-63
2021/03/14 01:46:00;;;;;;;41.33;21.77;;;;;;;;;;5096843;28;20027;-61
2021/03/14 01:48:26;;;;;;;39.60;21.92;;;;;;;;;;5095803;28;20416;-61
2021/03/14 01:50:52;;;;;;;39.88;20.95;;;;;;;;;;5095686;28;20016;-61
2021/03/14 01:53:18;;;;;;;39.08;22.33;;;;;;;;;;5095355;28;20023;-61
2021/03/14 01:55:44;;;;;;;36.35;19.17;;;;;;;;;;5113887;28;20375;-61
2021/03/14 01:58:10;;;;;;;34.65;19.85;;;;;;;;;;5095734;28;20035;-62
2021/03/14 02:00:36;;;;;;;39.88;19.15;;;;;;;;;;5113086;28;20008;-61
2021/03/14 02:03:01;;;;;;;35.25;18.45;;;;;;;;;;5095793;28;20023;-61
2021/03/14 02:05:27;;;;;;;34.25;19.00;;;;;;;;;;5113257;28;20026;-61
2021/03/14 02:07:53;;;;;;;32.40;17.85;;;;;;;;;;5095361;28;20030;-61
2021/03/14 02:10:20;;;;;;;35.35;18.55;;;;;;;;;;5095241;28;20007;-61
2021/03/14 02:12:46;;;;;;;37.35;19.35;;;;;;;;;;5095526;28;20106;-62
2021/03/14 02:15:12;;;;;;;36.90;18.45;;;;;;;;;;5113390;28;20099;-61
2021/03/14 02:17:39;;;;;;;30.90;18.08;;;;;;;;;;5113153;28;20015;-62
2021/03/14 02:20:11;;;;;;;30.27;18.08;;;;;;;;;;5113602;28;20024;-62
2021/03/14 02:22:39;;;;;;;34.40;17.73;;;;;;;;;;5113160;28;20020;-62
2021/03/14 02:25:11;;;;;;;36.42;18.13;;;;;;;;;;5113437;28;20016;-62
2021/03/14 02:27:37;;;;;;;36.22;17.02;;;;;;;;;;5112969;28;20019;-62
2021/03/14 02:30:03;;;;;;;34.00;16.63;;;;;;;;;;5095252;28;20023;-62
2021/03/14 02:32:32;;;;;;;30.05;16.52;;;;;;;;;;5112650;28;20231;-63
2021/03/14 02:35:00;;;;;;;28.65;16.08;;;;;;;;;;5113021;28;20050;-62
2021/03/14 02:37:26;;;;;;;28.17;15.57;;;;;;;;;;5094650;28;20131;-61
2021/03/14 02:39:55;;;;;;;26.40;14.85;;;;;;;;;;5078084;28;20523;-62
2021/03/14 02:42:20;;;;;;;;;;;;;;;;;;5113553;28;20385;-61
2021/03/14 02:44:48;;;;;;;29.60;15.13;;;;;;;;;;5113200;28;19943;-62
2021/03/14 02:47:14;;;;;;;32.33;14.85;;;;;;;;;;5112854;28;20252;-61
2021/03/14 02:49:40;;;;;;;28.50;16.23;;;;;;;;;;5112839;28;20023;-62
2021/03/14 02:52:06;;;;;;;23.95;14.25;;;;;;;;;;5113182;28;20020;-62
2021/03/14 02:54:33;;;;;;;27.20;13.68;;;;;;;;;;5113030;28;20089;-62
2021/03/14 02:56:59;;;;;;;27.40;13.60;;;;;;;;;;5112974;28;20365;-61
2021/03/14 02:59:24;;;;;;;25.45;14.48;;;;;;;;;;5112887;28;20055;-62
2021/03/14 03:01:50;;;;;;;24.98;12.90;;;;;;;;;;5112470;28;20047;-62
2021/03/14 03:04:17;;;;;;;25.98;13.68;;;;;;;;;;5094737;28;20015;-61
2021/03/14 03:06:43;;;;;;;20.30;12.63;;;;;;;;;;5113224;28;20011;-61
2021/03/14 03:09:10;;;;;;;21.40;12.70;;;;;;;;;;5112885;28;20379;-61
2021/03/14 03:11:36;;;;;;;22.77;13.55;;;;;;;;;;5112542;28;20121;-61
2021/03/14 03:14:01;;;;;;;22.25;12.57;;;;;;;;;;5112884;28;20469;-61
2021/03/14 03:16:27;;;;;;;21.73;12.32;;;;;;;;;;5112547;28;20043;-62
2021/03/14 03:18:52;;;;;;;23.42;13.68;;;;;;;;;;5112950;28;20031;-61
2021/03/14 03:21:20;;;;;;;19.90;12.38;;;;;;;;;;5094579;28;20026;-61
2021/03/14 03:23:46;;;;;;;26.13;12.50;;;;;;;;;;5112765;28;20028;-62
2021/03/14 03:26:11;;;;;;;24.83;12.05;;;;;;;;;;5112666;28;20019;-62
2021/03/14 03:28:37;;;;;;;24.42;11.20;;;;;;;;;;5112676;28;20549;-62
2021/03/14 03:31:02;;;;;;;27.00;13.20;;;;;;;;;;5111986;28;20481;-62
2021/03/14 03:33:28;;;;;;;26.00;12.93;;;;;;;;;;5112971;28;20540;-62
2021/03/14 03:35:53;;;;;;;28.85;13.02;;;;;;;;;;5098153;28;20394;-62
2021/03/14 03:38:19;;;;;;;20.25;12.30;;;;;;;;;;5098338;28;20032;-62
2021/03/14 03:40:45;;;;;;;19.52;11.38;;;;;;;;;;5116780;28;20468;-62
2021/03/14 03:43:15;;;;;;;20.50;12.00;;;;;;;;;;5098149;28;20020;-62
2021/03/14 03:45:43;;;;;;;26.02;13.32;;;;;;;;;;5116428;28;20014;-62
2021/03/14 03:48:13;;;;;;;26.13;13.40;;;;;;;;;;5116611;28;20490;-61
2021/03/14 03:50:38;;;;;;;21.75;12.05;;;;;;;;;;5116513;28;20084;-62
2021/03/14 03:53:04;;;;;;;18.38;12.23;;;;;;;;;;5097889;28;20390;-62
2021/03/14 03:55:30;;;;;;;25.48;13.48;;;;;;;;;;5116033;28;20036;-62
2021/03/14 03:57:56;;;;;;;21.92;13.07;;;;;;;;;;5116181;28;20019;-62
2021/03/14 04:00:22;;;;;;;28.60;13.68;;;;;;;;;;5115986;28;20024;-62
2021/03/14 04:02:49;;;;;;;20.83;12.60;;;;;;;;;;5097203;28;20047;-62
2021/03/14 04:05:17;;;;;;;21.48;12.70;;;;;;;;;;5115425;28;20065;-62
2021/03/14 04:07:44;;;;;;;21.30;12.05;;;;;;;;;;5115343;28;20019;-62
2021/03/14 04:10:11;;;;;;;22.27;12.93;;;;;;;;;;5115043;28;20383;-62
2021/03/14 04:12:38;;;;;;;23.88;12.10;;;;;;;;;;5114731;28;20043;-62
2021/03/14 04:15:07;;;;;;;23.15;12.77;;;;;;;;;;5096174;28;20383;-62
2021/03/14 04:17:32;;;;;;;24.77;14.07;;;;;;;;;;5114493;28;20103;-61
2021/03/14 04:19:59;;;;;;;25.67;16.30;;;;;;;;;;5114667;28;20444;-61
2021/03/14 04:22:25;;;;;;;24.48;13.32;;;;;;;;;;5114693;28;20020;-61
2021/03/14 04:24:51;;;;;;;24.95;14.25;;;;;;;;;;5114728;28;20016;-61
2021/03/14 04:27:17;;;;;;;24.23;13.65;;;;;;;;;;5079118;28;20030;-61
2021/03/14 04:29:44;;;;;;;26.23;14.32;;;;;;;;;;5114266;28;20372;-61
2021/03/14 04:32:11;;;;;;;22.48;14.23;;;;;;;;;;5113922;28;20469;-61
2021/03/14 04:34:37;;;;;;;23.55;14.07;;;;;;;;;;5113999;28;20412;-61
2021/03/14 04:37:02;;;;;;;25.70;13.90;;;;;;;;;;5114278;28;20487;-62
2021/03/14 04:39:28;;;;;;;25.83;13.88;;;;;;;;;;5113864;28;20024;-61
2021/03/14 04:41:54;;;;;;;26.83;14.80;;;;;;;;;;5114053;28;20023;-61
2021/03/14 04:44:21;;;;;;;29.45;14.55;;;;;;;;;;5113708;28;20027;-62
2021/03/14 04:46:47;;;;;;;25.42;14.02;;;;;;;;;;5096084;28;20019;-62
2021/03/14 04:49:13;;;;;;;25.95;14.93;;;;;;;;;;5113864;28;20110;-61
2021/03/14 04:51:41;;;;;;;26.48;13.35;;;;;;;;;;5113567;28;20020;-62
2021/03/14 04:54:08;;;;;;;29.27;15.10;;;;;;;;;;5114046;28;20099;-61
2021/03/14 04:56:34;;;;;;;21.75;13.20;;;;;;;;;;5113794;28;20064;-61
2021/03/14 04:59:00;;;;;;;21.55;12.68;;;;;;;;;;5114083;28;20391;-61
2021/03/14 05:01:26;;;;;;;20.80;12.23;;;;;;;;;;5094678;28;20789;-61
2021/03/14 05:03:53;;;;;;;22.10;12.45;;;;;;;;;;5113692;28;20019;-62
2021/03/14 05:06:19;;;;;;;22.83;13.48;;;;;;;;;;5113586;28;20043;-61
2021/03/14 05:08:45;;;;;;;23.52;12.98;;;;;;;;;;5095591;28;20027;-62
2021/03/14 05:11:14;;;;;;;29.75;13.32;;;;;;;;;;5113441;28;20472;-62
2021/03/14 05:13:40;;;;;;;26.83;13.65;;;;;;;;;;5094860;28;20012;-62
2021/03/14 05:16:06;;;;;;;26.02;13.35;;;;;;;;;;5095192;28;20080;-62
2021/03/14 05:18:31;;;;;;;25.52;13.55;;;;;;;;;;5095211;28;20103;-62
2021/03/14 05:20:57;;;;;;;25.63;15.27;;;;;;;;;;5095211;28;20059;-62
2021/03/14 05:23:23;;;;;;;26.80;14.82;;;;;;;;;;5113215;28;20020;-61
2021/03/14 05:25:49;;;;;;;34.22;15.70;;;;;;;;;;5113457;28;20026;-62
2021/03/14 05:28:20;;;;;;;29.55;14.95;;;;;;;;;;5113738;28;20023;-62
2021/03/14 05:30:45;;;;;;;27.90;15.30;;;;;;;;;;5095834;28;20360;-62
2021/03/14 05:33:11;;;;;;;25.65;15.05;;;;;;;;;;5096019;28;20034;-62
2021/03/14 05:35:36;;;;;;;30.55;14.43;;;;;;;;;;5078638;28;20063;-62
2021/03/14 05:38:02;;;;;;;25.27;13.98;;;;;;;;;;5096165;28;20023;-62
2021/03/14 05:40:29;;;;;;;24.08;13.90;;;;;;;;;;5114115;28;20008;-62
2021/03/14 05:42:55;;;;;;;28.77;14.82;;;;;;;;;;5095860;28;20008;-62
2021/03/14 05:45:20;;;;;;;29.02;15.65;;;;;;;;;;5113803;28;20016;-62
2021/03/14 05:47:46;;;;;;;27.05;15.80;;;;;;;;;;5096024;28;20024;-62
2021/03/14 05:50:13;;;;;;;29.38;16.35;;;;;;;;;;5078760;28;20022;-62
2021/03/14 05:52:40;;;;;;;29.25;15.77;;;;;;;;;;5113997;28;20011;-62
2021/03/14 05:55:07;;;;;;;31.77;16.10;;;;;;;;;;5096030;28;20047;-62
2021/03/14 05:57:33;;;;;;;26.27;15.38;;;;;;;;;;5112785;28;20026;-62
2021/03/14 05:59:58;;;;;;;30.92;15.23;;;;;;;;;;5113984;28;20083;-62
2021/03/14 06:02:24;;;;;;;26.63;15.35;;;;;;;;;;5095146;28;20020;-62
2021/03/14 06:04:52;;;;;;;31.45;15.65;;;;;;;;;;5114073;28;20551;-63
2021/03/14 06:07:18;;;;;;;27.30;16.40;;;;;;;;;;5095361;28;20463;-62
2021/03/14 06:09:43;;;;;;;27.90;16.73;;;;;;;;;;5095553;28;20071;-62
2021/03/14 06:12:10;;;;;;;35.33;17.83;;;;;;;;;;5095371;28;20060;-62
2021/03/14 06:14:36;;;;;;;31.50;16.35;;;;;;;;;;5113669;28;20084;-62
2021/03/14 06:17:01;;;;;;;33.58;19.73;;;;;;;;;;5113785;28;20028;-62
2021/03/14 06:19:27;;;;;;;34.65;16.13;;;;;;;;;;5113199;28;20016;-62
2021/03/14 06:22:12;;;;;;;25.52;15.27;;;;;;;;;;5095323;28;20468;-62
2021/03/14 06:24:37;;;;;;;26.98;15.98;;;;;;;;;;5098366;28;20019;-62
2021/03/14 06:27:03;;;;;;;35.67;16.52;;;;;;;;;;5095527;28;20375;-62
2021/03/14 06:29:28;;;;;;;31.63;16.50;;;;;;;;;;5113072;28;20084;-62
2021/03/14 06:31:55;;;;;;;30.88;15.52;;;;;;;;;;5113042;28;20031;-62
2021/03/14 06:34:24;;;;;;;36.92;16.08;;;;;;;;;;5094536;28;20059;-62
2021/03/14 06:36:49;;;;;;;35.67;16.37;;;;;;;;;;5113543;28;20036;-62
2021/03/14 06:39:20;;;;;;;28.20;14.20;;;;;;;;;;5113325;28;20248;-64
2021/03/14 06:41:46;;;;;;;27.85;15.27;;;;;;;;;;5113193;28;20018;-63
2021/03/14 06:44:20;;;;;;;27.73;15.05;;;;;;;;;;5113230;28;20019;-62
2021/03/14 06:46:45;;;;;;;25.90;13.63;;;;;;;;;;5113300;28;20027;-63
2021/03/14 06:49:13;;;;;;;22.55;13.23;;;;;;;;;;5113152;28;20466;-63
2021/03/14 06:51:39;;;;;;;36.95;14.98;;;;;;;;;;5112858;28;20007;-62
2021/03/14 06:54:14;;;;;;;28.33;14.35;;;;;;;;;;5078116;28;20110;-62
2021/03/14 06:56:39;;;;;;;27.77;15.80;;;;;;;;;;5094639;28;20027;-62
2021/03/14 06:59:15;;;;;;;37.30;17.15;;;;;;;;;;5095025;28;20460;-62
2021/03/14 07:01:55;;;;;;;40.65;18.33;;;;;;;;;;5094036;28;20023;-62
2021/03/14 07:04:30;;;;;;;46.25;19.30;;;;;;;;;;5113357;28;20016;-63
2021/03/14 07:06:55;;;;;;;34.00;17.27;;;;;;;;;;5113099;28;20085;-62
2021/03/14 07:09:22;;;;;;;27.70;16.35;;;;;;;;;;5116895;28;20156;-62
2021/03/14 07:11:47;;;;;;;27.15;13.68;;;;;;;;;;5117301;28;20091;-62
2021/03/14 07:14:14;;;;;;;28.05;12.95;;;;;;;;;;5116962;28;20149;-63
2021/03/14 07:16:41;;;;;;;30.67;14.77;;;;;;;;;;5117146;28;20023;-62
2021/03/14 07:19:08;;;;;;;24.70;13.43;;;;;;;;;;5116910;28;20454;-62
2021/03/14 07:21:33;;;;;;;28.48;15.40;;;;;;;;;;5116647;28;20100;-62
2021/03/14 07:23:59;;;;;;;25.58;12.68;;;;;;;;;;5117186;28;20027;-62
2021/03/14 07:26:40;;;;;;;20.70;11.48;;;;;;;;;;5098446;28;20118;-63
2021/03/14 07:29:06;;;;;;;22.60;11.65;;;;;;;;;;5116826;28;20459;-62
2021/03/14 07:31:31;;;;;;;22.83;12.88;;;;;;;;;;5115623;28;20023;-63
2021/03/14 07:33:58;;;;;;;20.40;12.10;;;;;;;;;;5116819;28;20023;-62
2021/03/14 07:36:23;;;;;;;18.48;11.60;;;;;;;;;;5116282;28;20043;-62
2021/03/14 07:38:49;;;;;;;33.10;13.55;;;;;;;;;;5098357;28;20382;-63
2021/03/14 07:41:14;;;;;;;30.08;14.10;;;;;;;;;;5116729;28;20027;-62
2021/03/14 07:43:39;;;;;;;28.88;14.65;;;;;;;;;;5116173;28;20467;-62
2021/03/14 07:46:06;;;;;;;30.60;16.00;;;;;;;;;;5098340;28;20027;-62
2021/03/14 07:48:31;;;;;;;29.45;16.40;;;;;;;;;;5098181;28;20035;-62
2021/03/14 07:50:56;;;;;;;28.45;14.80;;;;;;;;;;5098202;28;20057;-62
2021/03/14 07:53:22;;;;;;;28.88;15.05;;;;;;;;;;5116323;28;20041;-62
2021/03/14 07:55:53;;;;;;;24.95;13.98;;;;;;;;;;5116475;28;20047;-62
2021/03/14 07:58:22;;;;;;;23.23;13.48;;;;;;;;;;5097964;28;20364;-62
2021/03/14 08:00:48;;;;;;;28.05;13.68;;;;;;;;;;5115531;28;20379;-62
2021/03/14 08:03:14;;;;;;;24.27;12.55;;;;;;;;;;5116439;28;20020;-62
2021/03/14 08:05:40;;;;;;;26.25;11.13;;;;;;;;;;5115954;28;20035;-62
2021/03/14 08:08:06;;;;;;;19.02;9.55;;;;;;;;;;5115938;28;20530;-62
2021/03/14 08:10:34;;;;;;;20.25;9.95;;;;;;;;;;5116237;28;20075;-63
2021/03/14 08:13:00;;;;;;;17.13;9.25;;;;;;;;;;5116104;28;20376;-63
2021/03/14 08:15:28;;;;;;;17.38;9.32;;;;;;;;;;5097048;28;20020;-63
2021/03/14 08:17:54;;;;;;;17.42;8.88;;;;;;;;;;5098214;28;20046;-63
2021/03/14 08:20:35;;;;;;;14.20;8.30;;;;;;;;;;5096721;28;20015;-63
2021/03/14 08:23:02;;;;;;;8.38;5.35;;;;;;;;;;5080643;28;20027;-63
2021/03/14 08:25:29;;;;;;;7.88;4.70;;;;;;;;;;5115637;28;20353;-63
2021/03/14 08:27:55;;;;;;;7.97;4.75;;;;;;;;;;5097631;28;20039;-63
2021/03/14 08:30:31;;;;;;;9.15;4.85;;;;;;;;;;5115572;28;20072;-63
2021/03/14 08:33:06;;;;;;;5.90;3.63;;;;;;;;;;5115689;28;20027;-64
2021/03/14 08:35:41;;;;;;;4.63;2.60;;;;;;;;;;5114964;28;20073;-64
2021/03/14 08:38:23;;;;;;;3.58;2.60;;;;;;;;;;5115432;28;20051;-63
2021/03/14 08:40:48;;;;;;;3.92;2.10;;;;;;;;;;5097399;28;20016;-63
2021/03/14 08:43:33;;;;;;;4.80;2.10;;;;;;;;;;5115577;28;20475;-63
2021/03/14 08:45:59;;;;;;;2.55;1.65;;;;;;;;;;5100069;28;20028;-63
2021/03/14 08:48:24;;;;;;;3.13;2.05;;;;;;;;;;5096932;28;20020;-63
2021/03/14 08:50:50;;;;;;;4.65;1.98;;;;;;;;;;5080010;28;20444;-64
2021/03/14 08:53:15;;;;;;;3.60;1.90;;;;;;;;;;5115256;28;20080;-63
2021/03/14 08:55:41;;;;;;;2.58;1.63;;;;;;;;;;5096399;28;20127;-63
2021/03/14 08:58:16;;;;;;;3.17;1.90;;;;;;;;;;5097177;28;20024;-63
2021/03/14 09:00:41;;;;;;;6.03;1.88;;;;;;;;;;5096098;28;20016;-63
2021/03/14 09:03:10;;;;;;;5.60;2.03;;;;;;;;;;5114950;28;20023;-63
2021/03/14 09:05:45;;;;;;;3.90;1.95;;;;;;;;;;5096481;28;20019;-64
2021/03/14 09:08:15;;;;;;;5.65;1.73;;;;;;;;;;5114839;28;20047;-63
2021/03/14 09:10:41;;;;;;;3.67;1.73;;;;;;;;;;5096891;28;20557;-63
2021/03/14 09:13:06;;;;;;;4.93;1.52;;;;;;;;;;5114851;28;20516;-63
2021/03/14 09:15:32;;;;;;;5.47;2.10;;;;;;;;;;5096528;28;20114;-63
2021/03/14 09:17:58;;;;;;;2.75;2.00;;;;;;;;;;5114916;28;20020;-63
2021/03/14 09:20:23;;;;;;;4.90;2.03;;;;;;;;;;5114529;28;20020;-63
2021/03/14 09:22:49;;;;;;;5.38;1.73;;;;;;;;;;5114635;28;20044;-63
2021/03/14 09:25:15;;;;;;;3.90;2.15;;;;;;;;;;5114525;28;20028;-63
2021/03/14 09:27:42;;;;;;;3.35;1.98;;;;;;;;;;5079079;28;20475;-63
2021/03/14 09:30:07;;;;;;;2.75;1.70;;;;;;;;;;5096577;28;20054;-63
2021/03/14 09:32:34;;;;;;;5.93;1.80;;;;;;;;;;5095440;28;20092;-64
2021/03/14 09:35:10;;;;;;;3.67;2.30;;;;;;;;;;5095741;28;20079;-63
2021/03/14 09:37:36;;;;;;;6.72;3.03;;;;;;;;;;5114110;28;20008;-64
2021/03/14 09:40:11;;;;;;;5.55;2.95;;;;;;;;;;5114507;28;20023;-63
2021/03/14 09:42:36;;;;;;;8.57;3.95;;;;;;;;;;5095964;28;20008;-63
2021/03/14 09:45:03;;;;;;;6.63;3.13;;;;;;;;;;5078932;28;20387;-63
2021/03/14 09:47:29;;;;;;;5.25;2.42;;;;;;;;;;5095556;28;20102;-63
2021/03/14 09:50:04;;;;;;;4.28;2.17;;;;;;;;;;5114257;28;20055;-63
2021/03/14 09:52:30;;;;;;;5.32;2.33;;;;;;;;;;5113953;28;20016;-63
2021/03/14 09:54:55;;;;;;;3.65;2.30;;;;;;;;;;5114009;28;20459;-63
2021/03/14 09:57:21;;;;;;;2.60;2.17;;;;;;;;;;5113837;28;20078;-63
2021/03/14 09:59:46;;;;;;;9.95;2.60;;;;;;;;;;5114056;28;20015;-63
2021/03/14 10:02:12;;;;;;;4.60;1.95;;;;;;;;;;5095136;28;20051;-63
2021/03/14 10:04:47;;;;;;;4.35;2.55;;;;;;;;;;5095825;28;20098;-63
2021/03/14 10:07:20;;;;;;;3.05;2.00;;;;;;;;;;5113556;28;20026;-63
2021/03/14 10:09:45;;;;;;;2.63;1.77;;;;;;;;;;5095459;28;20041;-63
2021/03/14 10:12:11;;;;;;;2.03;1.50;;;;;;;;;;5113896;28;20019;-63
2021/03/14 10:14:36;;;;;;;1.23;0.93;;;;;;;;;;5095194;28;20019;-63
2021/03/14 10:17:02;;;;;;;1.73;0.93;;;;;;;;;;5095321;28;20035;-63
2021/03/14 10:19:28;;;;;;;2.20;1.38;;;;;;;;;;5113506;28;20034;-63
2021/03/14 10:21:53;;;;;;;4.93;1.10;;;;;;;;;;5113462;28;20026;-63
2021/03/14 10:24:23;;;;;;;2.53;1.20;;;;;;;;;;5113926;28;20023;-63
2021/03/14 10:26:51;;;;;;;1.45;0.90;;;;;;;;;;5113267;28;20008;-63
2021/03/14 10:29:17;;;;;;;2.17;1.27;;;;;;;;;;5113212;28;20015;-63
2021/03/14 10:31:42;;;;;;;2.55;1.55;;;;;;;;;;5094598;28;20396;-63
2021/03/14 10:34:08;;;;;;;6.47;1.45;;;;;;;;;;5113811;28;20024;-63
2021/03/14 10:36:34;;;;;;;7.80;2.42;;;;;;;;;;5074586;28;20149;-63
2021/03/14 10:39:00;;;;;;;22.20;8.63;;;;;;;;;;5091747;28;20022;-62
2021/03/14 10:41:25;;;;;;;6.80;2.55;;;;;;;;;;5092893;28;20011;-63
2021/03/14 10:43:52;;;;;;;4.10;1.90;;;;;;;;;;5074175;28;20048;-63
2021/03/14 10:46:27;;;;;;;5.35;2.28;;;;;;;;;;5092745;28;20527;-63
2021/03/14 10:48:59;;;;;;;4.95;2.00;;;;;;;;;;5092836;28;20016;-63
2021/03/14 10:51:29;;;;;;;3.15;1.65;;;;;;;;;;5092495;28;20055;-62
2021/03/14 10:54:03;;;;;;;2.15;1.38;;;;;;;;;;5092723;28;20023;-63
2021/03/14 10:56:31;;;;;;;3.10;1.48;;;;;;;;;;5074479;28;20099;-63
2021/03/14 10:58:57;;;;;;;3.40;1.30;;;;;;;;;;5092805;28;20051;-63
2021/03/14 11:01:35;;;;;;;3.05;1.40;;;;;;;;;;5091630;28;20055;-62
2021/03/14 11:04:01;;;;;;;2.65;1.30;;;;;;;;;;5091916;28;20059;-63
2021/03/14 11:06:28;;;;;;;1.95;1.38;;;;;;;;;;5074616;28;20380;-63
2021/03/14 11:08:56;;;;;;;1.27;0.90;;;;;;;;;;5074482;28;20020;-63
2021/03/14 11:11:26;;;;;;;2.83;1.15;;;;;;;;;;5092371;28;20329;-63
2021/03/14 11:13:52;;;;;;;2.72;0.95;;;;;;;;;;5092700;28;20036;-63
2021/03/14 11:16:18;;;;;;;3.35;1.23;;;;;;;;;;5091365;28;20024;-63
2021/03/14 11:18:43;;;;;;;3.40;1.33;;;;;;;;;;5092661;28;20035;-63
2021/03/14 11:21:09;;;;;;;3.08;1.30;;;;;;;;;;5074412;28;20028;-63
2021/03/14 11:23:34;;;;;;;4.38;1.10;;;;;;;;;;5092105;28;20047;-63
2021/03/14 11:26:00;;;;;;;2.42;1.00;;;;;;;;;;5091559;28;20065;-63
2021/03/14 11:28:26;;;;;;;2.42;1.13;;;;;;;;;;5090984;28;20096;-63
2021/03/14 11:30:51;;;;;;;2.05;1.00;;;;;;;;;;5073989;28;20015;-63
2021/03/14 11:33:16;;;;;;;4.55;2.13;;;;;;;;;;5074624;28;20020;-63
2021/03/14 11:35:42;;;;;;;3.20;1.02;;;;;;;;;;5104501;28;20044;-63
2021/03/14 11:38:08;;;;;;;2.53;1.23;;;;;;;;;;5094415;28;20102;-64
2021/03/14 11:40:33;;;;;;;3.28;1.60;;;;;;;;;;5112877;28;20043;-63
2021/03/14 11:42:59;;;;;;;3.65;1.35;;;;;;;;;;5112783;28;20099;-63
2021/03/14 11:45:24;;;;;;;4.50;1.17;;;;;;;;;;5112325;28;20031;-63
2021/03/14 11:47:50;;;;;;;2.53;1.35;;;;;;;;;;5094574;28;20020;-63
2021/03/14 11:50:15;;;;;;;1.77;1.30;;;;;;;;;;5112460;28;20368;-63
2021/03/14 11:52:42;;;;;;;4.30;1.63;;;;;;;;;;5094339;28;20103;-63
2021/03/14 11:55:08;;;;;;;4.50;1.38;;;;;;;;;;5114296;28;20015;-63
2021/03/14 11:57:34;;;;;;;4.75;1.50;;;;;;;;;;5116200;28;20075;-63
2021/03/14 11:59:59;;;;;;;1.75;1.25;;;;;;;;;;5098354;28;20456;-63
2021/03/14 12:02:25;;;;;;;2.30;1.20;;;;;;;;;;5115255;28;20096;-63
2021/03/14 12:04:50;;;;;;;1.80;1.02;;;;;;;;;;5098176;28;20022;-63
2021/03/14 12:07:16;;;;;;;3.63;1.20;;;;;;;;;;5116049;28;20012;-63
2021/03/14 12:09:41;;;;;;;2.15;1.00;;;;;;;;;;5097370;28;20102;-63
2021/03/14 12:12:07;;;;;;;2.72;0.85;;;;;;;;;;5080925;28;20068;-63
2021/03/14 12:14:33;;;;;;;3.13;1.08;;;;;;;;;;5097660;28;20476;-64
2021/03/14 12:16:58;;;;;;;5.15;0.95;;;;;;;;;;5097798;28;20043;-63
2021/03/14 12:19:23;;;;;;;2.15;1.00;;;;;;;;;;5097372;28;20020;-63
2021/03/14 12:21:49;;;;;;;1.63;1.05;;;;;;;;;;5097775;28;20023;-63
2021/03/14 12:24:14;;;;;;;1.30;1.00;;;;;;;;;;5097513;28;20020;-63
2021/03/14 12:26:40;;;;;;;2.25;1.30;;;;;;;;;;5115691;28;20016;-63
2021/03/14 12:29:07;;;;;;;6.65;2.00;;;;;;;;;;5097520;28;20072;-63
2021/03/14 12:31:32;;;;;;;5.68;2.30;;;;;;;;;;5114722;28;20098;-64
2021/03/14 12:33:58;;;;;;;8.80;2.53;;;;;;;;;;5097474;28;20047;-63
2021/03/14 12:36:23;;;;;;;4.65;2.28;;;;;;;;;;5115309;28;20115;-63
2021/03/14 12:38:48;;;;;;;2.10;1.50;;;;;;;;;;5115373;28;20057;-63
2021/03/14 12:41:14;;;;;;;4.22;2.25;;;;;;;;;;5115431;28;20016;-63
2021/03/14 12:43:40;;;;;;;4.60;2.10;;;;;;;;;;5115251;28;20039;-63
2021/03/14 12:46:06;;;;;;;5.90;2.25;;;;;;;;;;5115412;28;20468;-63
2021/03/14 12:48:31;;;;;;;4.40;1.88;;;;;;;;;;5115334;28;20016;-64
2021/03/14 12:50:57;;;;;;;2.10;1.55;;;;;;;;;;5115537;28;20015;-63
2021/03/14 12:53:22;;;;;;;4.35;2.10;;;;;;;;;;5096614;28;20023;-63
2021/03/14 12:55:47;;;;;;;2.30;1.55;;;;;;;;;;5097104;28;20035;-63
2021/03/14 12:58:13;;;;;;;2.58;1.20;;;;;;;;;;5115190;28;20372;-63
2021/03/14 13:00:38;;;;;;;1.30;1.20;;;;;;;;;;5114474;28;20436;-63
2021/03/14 13:03:04;;;;;;;1.92;1.23;;;;;;;;;;5114954;28;20061;-63
2021/03/14 13:05:29;;;;;;;1.63;1.23;;;;;;;;;;5114597;28;20012;-63
2021/03/14 13:07:55;;;;;;;1.98;1.20;;;;;;;;;;5096782;28;20020;-63
2021/03/14 13:10:21;;;;;;;3.10;1.20;;;;;;;;;;5114802;28;20030;-63
2021/03/14 13:12:47;;;;;;;3.25;1.15;;;;;;;;;;5096708;28;20047;-63
2021/03/14 13:15:12;;;;;;;1.15;1.05;;;;;;;;;;5096777;28;20047;-63
2021/03/14 13:17:37;;;;;;;2.15;1.10;;;;;;;;;;5114567;28;20493;-63
2021/03/14 13:20:04;;;;;;;2.60;0.93;;;;;;;;;;5114736;28;20087;-63
2021/03/14 13:22:29;;;;;;;2.67;1.40;;;;;;;;;;5114488;28;20043;-63
2021/03/14 13:24:55;;;;;;;2.95;1.20;;;;;;;;;;5114745;28;20121;-63
2021/03/14 13:27:20;;;;;;;2.50;1.33;;;;;;;;;;5114251;28;20090;-62
2021/03/14 13:29:46;;;;;;;1.17;0.90;;;;;;;;;;5096281;28;20069;-63
2021/03/14 13:32:12;;;;;;;2.38;1.50;;;;;;;;;;5095574;28;20012;-63
2021/03/14 13:34:37;;;;;;;3.83;1.27;;;;;;;;;;5114213;28;20092;-63
2021/03/14 13:37:03;;;;;;;1.83;1.30;;;;;;;;;;5114216;28;20023;-63
2021/03/14 13:39:28;;;;;;;2.60;1.10;;;;;;;;;;5114112;28;20035;-63
2021/03/14 13:41:54;;;;;;;4.18;1.15;;;;;;;;;;5114253;28;20047;-63
2021/03/14 13:44:19;;;;;;;2.05;0.90;;;;;;;;;;5114225;28;20015;-63
2021/03/14 13:46:44;;;;;;;1.90;0.80;;;;;;;;;;5095970;28;20019;-63
2021/03/14 13:49:10;;;;;;;2.53;1.00;;;;;;;;;;5113836;28;20034;-63
2021/03/14 13:51:35;;;;;;;3.83;1.13;;;;;;;;;;5114021;28;20020;-63
2021/03/14 13:54:01;;;;;;;2.42;0.93;;;;;;;;;;5114057;28;20379;-63
2021/03/14 13:56:26;;;;;;;2.45;1.27;;;;;;;;;;5113759;28;20032;-63
2021/03/14 13:58:52;;;;;;;1.90;1.10;;;;;;;;;;5114048;28;20015;-63
2021/03/14 14:01:18;;;;;;;2.00;1.20;;;;;;;;;;5113387;28;20111;-63
2021/03/14 14:03:43;;;;;;;6.53;1.13;;;;;;;;;;5114068;28;20046;-63
2021/03/14 14:06:09;;;;;;;2.50;1.23;;;;;;;;;;5113719;28;20039;-63
2021/03/14 14:08:34;;;;;;;2.47;1.50;;;;;;;;;;5113941;28;20019;-63
2021/03/14 14:11:00;;;;;;;2.38;1.30;;;;;;;;;;5113639;28;20069;-63
2021/03/14 14:13:25;;;;;;;3.63;1.58;;;;;;;;;;5113383;28;20020;-63
2021/03/14 14:15:56;;;;;;;4.63;1.55;;;;;;;;;;5095338;28;20020;-63
2021/03/14 14:18:21;;;;;;;4.22;1.60;;;;;;;;;;5112823;28;20034;-63
2021/03/14 14:20:47;;;;;;;2.25;1.33;;;;;;;;;;5078429;28;20024;-63
2021/03/14 14:23:12;;;;;;;2.25;1.65;;;;;;;;;;5113507;28;20012;-63
2021/03/14 14:25:38;;;;;;;2.22;1.77;;;;;;;;;;5095004;28;20472;-63